createdAt,value
2022-09-09T00:02:23.470Z,8.97
2022-09-09T00:05:18.096Z,8.47
2022-09-09T00:07:54.526Z,8.27
2022-09-09T00:10:33.840Z,8.30
2022-09-09T00:13:04.115Z,7.17
2022-09-09T00:15:58.514Z,6.17
2022-09-09T00:18:49.050Z,5.80
2022-09-09T00:21:25.107Z,5.10
2022-09-09T00:23:55.535Z,3.93
2022-09-09T00:26:52.279Z,5.10
2022-09-09T00:30:10.415Z,8.30
2022-09-09T00:32:38.084Z,2.97
2022-09-09T00:35:35.138Z,4.00
2022-09-09T00:38:12.430Z,5.50
2022-09-09T00:41:08.870Z,5.93
2022-09-09T00:43:39.275Z,6.53
2022-09-09T00:46:35.549Z,7.23
2022-09-09T00:49:23.770Z,4.60
2022-09-09T00:52:16.623Z,6.13
2022-09-09T00:55:27.614Z,7.00
2022-09-09T00:57:57.705Z,5.10
2022-09-09T01:00:45.940Z,6.87
2022-09-09T01:03:40.955Z,8.90
2022-09-09T01:06:32.568Z,5.63
2022-09-09T01:09:20.997Z,7.60
2022-09-09T01:11:56.931Z,7.73
2022-09-09T01:14:37.860Z,7.57
2022-09-09T01:17:57.222Z,6.40
2022-09-09T01:20:56.206Z,6.37
2022-09-09T01:23:45.751Z,6.90
2022-09-09T01:26:35.972Z,6.17
2022-09-09T01:29:33.700Z,5.50
2022-09-09T01:32:47.927Z,5.97
2022-09-09T01:35:23.238Z,7.20
2022-09-09T01:37:52.440Z,7.53
2022-09-09T01:40:21.865Z,7.00
2022-09-09T01:43:01.697Z,8.47
2022-09-09T01:45:32.246Z,8.57
2022-09-09T01:48:04.843Z,6.33
2022-09-09T01:50:37.375Z,9.23
2022-09-09T01:53:08.733Z,9.00
2022-09-09T01:55:53.203Z,9.17
2022-09-09T01:58:48.914Z,10.53
2022-09-09T02:01:28.628Z,6.67
2022-09-09T02:03:59.013Z,8.17
2022-09-09T02:06:41.760Z,9.90
2022-09-09T02:09:13.463Z,6.97
2022-09-09T02:11:43.544Z,7.23
2022-09-09T02:14:18.059Z,10.00
2022-09-09T02:16:53.883Z,6.60
2022-09-09T02:19:38.470Z,9.23
2022-09-09T02:22:13.562Z,10.13
2022-09-09T02:24:41.909Z,7.53
2022-09-09T02:27:11.391Z,5.73
2022-09-09T02:29:44.194Z,9.47
2022-09-09T02:32:28.400Z,6.90
2022-09-09T02:35:03.878Z,8.13
2022-09-09T02:37:42.704Z,7.00
2022-09-09T02:40:16.391Z,7.97
2022-09-09T02:42:54.024Z,5.87
2022-09-09T02:45:34.596Z,6.47
2022-09-09T02:48:43.480Z,7.03
2022-09-09T02:51:29.319Z,8.33
2022-09-09T02:54:18.314Z,6.77
2022-09-09T02:57:01.226Z,6.13
2022-09-09T02:59:35.072Z,6.47
2022-09-09T03:02:05.935Z,8.10
2022-09-09T03:04:39.084Z,8.90
2022-09-09T03:07:08.798Z,8.23
2022-09-09T03:09:38.947Z,10.43
2022-09-09T03:12:10.208Z,6.90
2022-09-09T03:14:45.608Z,6.93
2022-09-09T03:17:16.936Z,9.67
2022-09-09T03:19:45.659Z,8.20
2022-09-09T03:22:17.697Z,9.17
2022-09-09T03:24:57.334Z,9.37
2022-09-09T03:27:29.430Z,7.43
2022-09-09T03:30:00.451Z,8.37
2022-09-09T03:32:30.862Z,8.43
2022-09-09T03:35:03.645Z,9.70
2022-09-09T03:37:31.475Z,9.27
2022-09-09T03:39:58.907Z,8.43
2022-09-09T03:42:29.941Z,8.00
2022-09-09T03:45:13.355Z,9.03
2022-09-09T03:47:43.342Z,10.50
2022-09-09T03:53:08.180Z,10.27
2022-09-09T03:55:51.506Z,9.30
2022-09-09T03:58:31.243Z,8.93
2022-09-09T04:01:04.203Z,12.93
2022-09-09T04:03:34.027Z,10.77
2022-09-09T04:06:11.841Z,8.00
2022-09-09T04:08:45.610Z,11.70
2022-09-09T04:11:15.860Z,7.47
2022-09-09T04:13:51.794Z,11.03
2022-09-09T04:16:24.523Z,10.33
2022-09-09T04:18:51.930Z,10.97
2022-09-09T04:21:19.202Z,11.40
2022-09-09T04:23:52.532Z,11.73
2022-09-09T04:26:24.274Z,12.57
2022-09-09T04:28:51.936Z,13.00
2022-09-09T04:31:24.141Z,13.13
2022-09-09T04:33:56.881Z,11.03
2022-09-09T04:36:24.493Z,13.67
2022-09-09T04:38:51.985Z,12.83
2022-09-09T04:41:23.948Z,16.40
2022-09-09T04:43:54.791Z,11.30
2022-09-09T04:46:28.709Z,10.93
2022-09-09T04:48:58.167Z,11.67
2022-09-09T04:51:33.348Z,12.37
2022-09-09T04:54:00.754Z,13.70
2022-09-09T04:56:37.942Z,13.80
2022-09-09T04:59:08.913Z,12.53
2022-09-09T05:01:48.320Z,14.43
2022-09-09T05:04:24.308Z,15.10
2022-09-09T05:06:56.015Z,14.30
2022-09-09T05:09:31.203Z,15.13
2022-09-09T05:11:59.463Z,17.30
2022-09-09T05:14:36.456Z,16.00
2022-09-09T05:17:52.431Z,16.73
2022-09-09T05:20:40.592Z,15.37
2022-09-09T05:23:12.316Z,16.77
2022-09-09T05:25:51.403Z,14.87
2022-09-09T05:28:21.419Z,15.10
2022-09-09T05:37:23.579Z,15.30
2022-09-09T05:45:48.555Z,15.27
2022-09-09T05:48:17.366Z,15.90
2022-09-09T05:50:53.509Z,17.77
2022-09-09T05:53:23.480Z,15.03
2022-09-09T05:56:05.590Z,15.93
2022-09-09T05:58:39.902Z,17.63
2022-09-09T06:01:55.729Z,15.27
2022-09-09T06:04:29.221Z,13.57
2022-09-09T06:07:24.502Z,13.90
2022-09-09T06:10:22.270Z,14.27
2022-09-09T06:13:07.311Z,14.67
2022-09-09T06:15:38.196Z,14.73
2022-09-09T06:18:17.235Z,11.73
2022-09-09T06:21:24.506Z,11.87
2022-09-09T06:24:01.268Z,11.30
2022-09-09T06:26:54.195Z,13.37
2022-09-09T06:29:24.785Z,12.50
2022-09-09T06:33:33.353Z,16.47
2022-09-09T06:35:32.638Z,13.73
2022-09-09T06:37:59.698Z,17.07
2022-09-09T06:40:26.495Z,14.60
2022-09-09T06:42:57.387Z,13.67
2022-09-09T06:45:24.210Z,11.97
2022-09-09T06:47:50.952Z,14.47
2022-09-09T06:50:17.726Z,11.90
2022-09-09T06:52:48.694Z,13.00
2022-09-09T06:55:16.886Z,13.80
2022-09-09T06:57:46.936Z,14.97
2022-09-09T07:00:17.693Z,12.27
2022-09-09T07:02:45.387Z,9.32
2022-09-09T07:05:12.405Z,8.45
2022-09-09T07:07:39.416Z,8.10
2022-09-09T07:10:06.676Z,10.32
2022-09-09T07:12:33.467Z,10.88
2022-09-09T07:15:00.362Z,10.13
2022-09-09T07:17:29.332Z,5.93
2022-09-09T07:19:56.651Z,9.70
2022-09-09T07:22:23.675Z,7.30
2022-09-09T07:24:50.689Z,9.27
2022-09-09T07:27:17.653Z,14.93
2022-09-09T07:29:44.414Z,8.88
2022-09-09T07:32:14.137Z,6.25
2022-09-09T07:34:41.078Z,8.32
2022-09-09T07:37:08.005Z,8.98
2022-09-09T07:39:35.049Z,11.57
2022-09-09T07:42:01.888Z,7.68
2022-09-09T07:44:33.367Z,8.75
2022-09-09T07:47:00.510Z,6.43
2022-09-09T07:49:31.055Z,9.82
2022-09-09T07:52:00.319Z,7.78
2022-09-09T07:54:27.370Z,9.50
2022-09-09T07:56:54.418Z,5.05
2022-09-09T07:59:21.419Z,6.47
2022-09-09T08:01:54.538Z,10.15
2022-09-09T08:04:22.877Z,9.32
2022-09-09T08:06:55.509Z,8.23
2022-09-09T08:09:26.085Z,6.90
2022-09-09T08:11:52.954Z,9.48
2022-09-09T08:14:20.010Z,8.73
2022-09-09T08:16:48.758Z,11.70
2022-09-09T08:19:18.934Z,9.07
2022-09-09T08:21:46.647Z,6.88
2022-09-09T08:24:18.703Z,11.77
2022-09-09T08:26:49.879Z,6.22
2022-09-09T08:29:18.399Z,7.85
2022-09-09T08:31:46.583Z,8.32
2022-09-09T08:34:13.535Z,9.25
2022-09-09T08:36:45.474Z,6.82
2022-09-09T08:39:15.744Z,9.02
2022-09-09T08:42:05.972Z,10.63
2022-09-09T08:44:35.586Z,9.38
2022-09-09T08:47:43.669Z,8.65
2022-09-09T08:50:18.032Z,6.82
2022-09-09T08:53:11.529Z,9.40
2022-09-09T08:55:49.393Z,8.18
2022-09-09T08:58:30.395Z,8.43
2022-09-09T09:01:09.257Z,5.97
2022-09-09T09:04:00.704Z,8.55
2022-09-09T09:06:37.768Z,7.10
2022-09-09T09:09:19.482Z,7.72
2022-09-09T09:12:01.799Z,8.82
2022-09-09T09:14:31.679Z,9.40
2022-09-09T09:17:07.341Z,7.75
2022-09-09T09:19:36.833Z,12.63
2022-09-09T09:22:21.071Z,8.07
2022-09-09T09:24:56.185Z,6.70
2022-09-09T09:27:41.281Z,14.60
2022-09-09T09:30:28.623Z,7.60
2022-09-09T09:32:56.411Z,4.55
2022-09-09T09:35:24.218Z,9.27
2022-09-09T09:40:49.741Z,10.30
2022-09-09T09:43:22.833Z,5.60
2022-09-09T09:46:07.278Z,12.35
2022-09-09T09:48:37.817Z,7.38
2022-09-09T09:51:11.678Z,7.35
2022-09-09T09:53:40.152Z,7.72
2022-09-09T09:56:09.816Z,8.35
2022-09-09T09:58:39.607Z,8.75
2022-09-09T10:01:07.374Z,8.95
2022-09-09T10:03:42.097Z,5.47
2022-09-09T10:06:08.821Z,9.93
2022-09-09T10:08:49.061Z,4.63
2022-09-09T10:11:38.674Z,9.13
2022-09-09T10:14:23.297Z,6.55
2022-09-09T10:17:11.183Z,4.88
2022-09-09T10:19:41.680Z,5.03
2022-09-09T10:22:28.847Z,8.38
2022-09-09T10:25:29.496Z,8.50
2022-09-09T10:28:43.025Z,7.68
2022-09-09T10:31:46.792Z,4.75
2022-09-09T10:34:37.953Z,6.40
2022-09-09T10:37:26.790Z,8.48
2022-09-09T10:40:16.477Z,3.35
2022-09-09T10:42:44.197Z,8.75
2022-09-09T10:45:35.659Z,8.50
2022-09-09T10:48:32.187Z,6.63
2022-09-09T10:51:21.661Z,8.20
2022-09-09T10:54:07.255Z,5.70
2022-09-09T10:56:35.752Z,7.85
2022-09-09T10:59:19.044Z,9.45
2022-09-09T11:02:10.809Z,7.07
2022-09-09T11:04:45.527Z,5.10
2022-09-09T11:07:22.169Z,8.93
2022-09-09T11:09:56.778Z,8.73
2022-09-09T11:12:25.946Z,8.00
2022-09-09T11:15:06.970Z,6.10
2022-09-09T11:17:53.560Z,10.77
2022-09-09T11:20:20.406Z,5.75
2022-09-09T11:23:16.574Z,4.70
2022-09-09T11:25:49.253Z,6.28
2022-09-09T11:28:48.571Z,6.03
2022-09-09T11:31:35.079Z,6.78
2022-09-09T11:34:26.371Z,5.88
2022-09-09T11:37:01.578Z,9.40
2022-09-09T11:39:31.291Z,10.63
2022-09-09T11:42:27.550Z,6.15
2022-09-09T11:44:56.028Z,7.25
2022-09-09T11:47:32.232Z,5.20
2022-09-09T11:50:32.984Z,8.70
2022-09-09T11:53:06.022Z,8.18
2022-09-09T11:55:35.702Z,8.05
2022-09-09T11:58:16.469Z,6.65
2022-09-09T12:00:48.744Z,6.32
2022-09-09T12:03:47.153Z,8.38
2022-09-09T12:06:34.473Z,4.78
2022-09-09T12:09:24.360Z,8.00
2022-09-09T12:11:51.822Z,12.98
2022-09-09T12:14:39.940Z,8.77
2022-09-09T12:17:15.755Z,7.20
2022-09-09T12:19:43.190Z,8.45
2022-09-09T12:22:22.996Z,8.05
2022-09-09T12:24:54.299Z,7.28
2022-09-09T12:27:41.842Z,3.92
2022-09-09T12:30:18.933Z,5.53
2022-09-09T12:32:45.849Z,5.10
2022-09-09T12:35:23.307Z,6.60
2022-09-09T12:38:24.782Z,5.65
2022-09-09T12:40:58.897Z,4.28
2022-09-09T12:43:28.001Z,3.67
2022-09-09T12:46:09.697Z,4.65
2022-09-09T12:48:41.350Z,4.78
2022-09-09T12:51:25.041Z,7.38
2022-09-09T12:53:53.354Z,5.25
2022-09-09T12:56:34.490Z,4.80
2022-09-09T12:59:02.201Z,4.18
2022-09-09T13:01:37.060Z,3.47
2022-09-09T13:04:05.260Z,4.40
2022-09-09T13:06:33.595Z,2.30
2022-09-09T13:09:02.590Z,4.85
2022-09-09T13:11:39.317Z,3.42
2022-09-09T13:14:07.503Z,3.58
2022-09-09T13:16:40.469Z,3.55
2022-09-09T13:19:17.462Z,5.05
2022-09-09T13:21:44.664Z,4.50
2022-09-09T13:24:33.675Z,7.57
2022-09-09T13:27:03.906Z,3.78
2022-09-09T13:29:32.640Z,5.50
2022-09-09T13:32:07.456Z,3.70
2022-09-09T13:34:37.611Z,3.50
2022-09-09T13:37:07.029Z,4.50
2022-09-09T13:39:36.894Z,4.57
2022-09-09T13:42:04.815Z,7.40
2022-09-09T13:44:37.882Z,3.80
2022-09-09T13:47:10.283Z,4.97
2022-09-09T13:49:37.543Z,3.90
2022-09-09T13:52:12.890Z,3.70
2022-09-09T13:54:40.699Z,3.22
2022-09-09T13:57:22.427Z,5.18
2022-09-09T14:00:06.518Z,6.97
2022-09-09T14:02:34.852Z,2.83
2022-09-09T14:05:01.950Z,5.35
2022-09-09T14:07:29.001Z,2.58
2022-09-09T14:09:55.712Z,4.20
2022-09-09T14:12:22.861Z,4.03
2022-09-09T14:14:50.774Z,5.50
2022-09-09T14:17:18.284Z,6.32
2022-09-09T14:19:46.979Z,4.45
2022-09-09T14:22:13.684Z,5.07
2022-09-09T14:24:43.016Z,4.03
2022-09-09T14:27:09.756Z,4.22
2022-09-09T14:29:36.434Z,4.85
2022-09-09T14:32:03.891Z,3.97
2022-09-09T14:34:31.332Z,4.05
2022-09-09T14:36:58.013Z,3.50
2022-09-09T14:39:25.233Z,4.40
2022-09-09T14:41:54.524Z,4.95
2022-09-09T14:44:21.195Z,8.32
2022-09-09T14:46:47.878Z,3.38
2022-09-09T14:49:14.664Z,4.85
2022-09-09T14:51:41.343Z,3.53
2022-09-09T14:54:08.047Z,6.20
2022-09-09T14:56:35.726Z,4.50
2022-09-09T14:59:03.660Z,3.95
2022-09-09T15:01:32.730Z,3.13
2022-09-09T15:04:01.945Z,4.45
2022-09-09T15:06:31.223Z,4.00
2022-09-09T15:09:01.492Z,4.47
2022-09-09T15:11:35.467Z,3.97
2022-09-09T15:14:02.753Z,6.55
2022-09-09T15:16:29.725Z,4.80
2022-09-09T15:18:58.427Z,5.38
2022-09-09T15:21:31.357Z,6.15
2022-09-09T15:23:58.915Z,4.00
2022-09-09T15:26:26.862Z,5.13
2022-09-09T15:28:53.949Z,6.22
2022-09-09T15:31:26.560Z,7.45
2022-09-09T15:34:07.773Z,4.75
2022-09-09T15:36:47.002Z,3.42
2022-09-09T15:39:19.349Z,7.15
2022-09-09T15:41:48.038Z,5.90
2022-09-09T15:44:16.635Z,6.10
2022-09-09T15:46:52.478Z,6.00
2022-09-09T15:49:27.366Z,2.40
2022-09-09T15:51:59.414Z,4.40
2022-09-09T15:54:27.288Z,7.72
2022-09-09T15:57:00.900Z,6.32
2022-09-09T15:59:29.821Z,7.90
2022-09-09T16:01:57.677Z,3.67
2022-09-09T16:04:25.745Z,5.00
2022-09-09T16:06:59.839Z,5.90
2022-09-09T16:09:27.785Z,6.38
2022-09-09T16:11:57.914Z,3.22
2022-09-09T16:14:25.844Z,3.50
2022-09-09T16:16:53.301Z,4.68
2022-09-09T16:19:21.004Z,5.38
2022-09-09T16:21:49.662Z,3.83
2022-09-09T16:24:19.251Z,4.57
2022-09-09T16:26:49.252Z,3.47
2022-09-09T16:29:18.404Z,5.57
2022-09-09T16:31:46.553Z,4.50
2022-09-09T16:34:14.003Z,3.17
2022-09-09T16:36:42.104Z,6.72
2022-09-09T16:39:15.202Z,8.13
2022-09-09T16:41:43.162Z,6.47
2022-09-09T16:44:11.749Z,5.45
2022-09-09T16:46:41.558Z,5.72
2022-09-09T16:49:11.181Z,4.32
2022-09-09T16:51:49.494Z,4.88
2022-09-09T16:54:18.043Z,4.07
2022-09-09T16:56:46.776Z,8.88
2022-09-09T16:59:16.153Z,9.15
2022-09-09T17:01:44.686Z,5.20
2022-09-09T17:04:21.416Z,3.78
2022-09-09T17:06:53.175Z,3.58
2022-09-09T17:09:21.335Z,5.97
2022-09-09T17:11:49.176Z,4.57
2022-09-09T17:14:18.307Z,4.50
2022-09-09T17:16:45.851Z,4.00
2022-09-09T17:19:13.619Z,3.50
2022-09-09T17:22:00.061Z,6.18
2022-09-09T17:24:30.513Z,4.00
2022-09-09T17:26:58.417Z,3.75
2022-09-09T17:29:26.053Z,7.72
2022-09-09T17:31:53.214Z,7.90
2022-09-09T17:34:19.931Z,6.55
2022-09-09T17:36:46.665Z,6.57
2022-09-09T17:39:13.436Z,4.25
2022-09-09T17:41:40.842Z,3.72
2022-09-09T17:46:42.552Z,5.03
2022-09-09T17:49:13.051Z,5.38
2022-09-09T17:51:42.567Z,5.50
2022-09-09T17:54:18.388Z,4.75
2022-09-09T17:56:46.419Z,5.35
2022-09-09T17:59:14.665Z,5.10
2022-09-09T18:01:45.095Z,3.13
2022-09-09T18:04:16.140Z,6.18
2022-09-09T18:06:45.469Z,4.72
2022-09-09T18:09:15.180Z,4.47
2022-09-09T18:11:45.538Z,4.75
2022-09-09T18:14:15.637Z,6.18
2022-09-09T18:16:42.839Z,4.93
2022-09-09T18:19:13.841Z,5.90
2022-09-09T18:21:42.626Z,6.55
2022-09-09T18:24:11.640Z,5.97
2022-09-09T18:26:39.925Z,8.25
2022-09-09T18:29:11.515Z,4.35
2022-09-09T18:31:38.591Z,6.20
2022-09-09T18:34:08.132Z,5.78
2022-09-09T18:36:44.504Z,6.93
2022-09-09T18:39:13.771Z,6.43
2022-09-09T18:41:44.066Z,5.63
2022-09-09T18:44:14.754Z,5.80
2022-09-09T18:46:41.580Z,5.78
2022-09-09T18:49:08.821Z,4.80
2022-09-09T18:51:37.201Z,7.57
2022-09-09T18:54:11.435Z,6.20
2022-09-09T18:56:39.259Z,7.10
2022-09-09T18:59:08.318Z,7.30
2022-09-09T19:01:38.858Z,9.75
2022-09-09T19:04:07.686Z,6.13
2022-09-09T19:06:39.177Z,6.10
2022-09-09T19:09:06.236Z,6.03
2022-09-09T19:11:33.669Z,5.50
2022-09-09T19:14:03.217Z,6.60
2022-09-09T19:16:32.397Z,8.63
2022-09-09T19:19:12.650Z,8.25
2022-09-09T19:21:41.205Z,6.30
2022-09-09T19:24:11.698Z,9.75
2022-09-09T19:26:41.865Z,6.55
2022-09-09T19:29:16.929Z,7.05
2022-09-09T19:32:02.010Z,8.10
2022-09-09T19:34:32.183Z,9.57
2022-09-09T19:37:00.306Z,7.93
2022-09-09T19:39:27.231Z,9.70
2022-09-09T19:41:54.857Z,9.93
2022-09-09T19:44:22.684Z,7.85
2022-09-09T19:46:50.159Z,8.77
2022-09-09T19:49:17.711Z,8.32
2022-09-09T19:51:44.789Z,9.63
2022-09-09T19:54:14.173Z,7.95
2022-09-09T19:56:42.804Z,10.10
2022-09-09T19:59:11.793Z,9.98
2022-09-09T20:01:44.932Z,11.00
2022-09-09T20:04:13.080Z,10.43
2022-09-09T20:06:41.978Z,9.73
2022-09-09T20:09:14.628Z,12.60
2022-09-09T20:11:43.244Z,10.57
2022-09-09T20:14:11.749Z,10.20
2022-09-09T20:16:39.540Z,9.95
2022-09-09T20:19:10.354Z,10.70
2022-09-09T20:21:44.022Z,10.03
2022-09-09T20:24:15.201Z,11.18
2022-09-09T20:26:42.137Z,12.10
2022-09-09T20:29:15.967Z,12.73
2022-09-09T20:31:44.551Z,17.17
2022-09-09T20:34:19.307Z,12.70
2022-09-09T20:36:47.131Z,14.95
2022-09-09T20:39:16.294Z,12.23
2022-09-09T20:41:44.655Z,16.27
2022-09-09T20:44:17.258Z,14.93
2022-09-09T20:46:49.196Z,18.27
2022-09-09T20:49:18.783Z,15.17
2022-09-09T20:51:46.658Z,19.90
2022-09-09T20:54:17.074Z,17.77
2022-09-09T20:56:45.599Z,17.37
2022-09-09T20:59:21.705Z,19.93
2022-09-09T21:01:49.264Z,18.77
2022-09-09T21:04:20.577Z,16.80
2022-09-09T21:06:51.913Z,16.97
2022-09-09T21:09:19.549Z,16.65
2022-09-09T21:11:47.312Z,20.33
2022-09-09T21:14:14.866Z,17.50
2022-09-09T21:16:41.829Z,19.00
2022-09-09T21:19:09.643Z,19.50
2022-09-09T21:21:40.259Z,18.77
2022-09-09T21:24:07.161Z,20.00
2022-09-09T21:26:35.695Z,16.27
2022-09-09T21:29:02.722Z,22.73
2022-09-09T21:31:29.746Z,18.88
2022-09-09T21:33:57.821Z,22.33
2022-09-09T21:36:27.252Z,22.53
2022-09-09T21:38:54.249Z,19.47
2022-09-09T21:41:21.621Z,19.20
2022-09-09T21:43:52.918Z,19.47
2022-09-09T21:46:20.656Z,20.43
2022-09-09T21:48:47.603Z,19.50
2022-09-09T21:51:16.283Z,18.23
2022-09-09T21:53:43.605Z,19.87
2022-09-09T21:56:15.858Z,21.87
2022-09-09T21:58:43.018Z,18.03
2022-09-09T22:01:15.641Z,21.83
2022-09-09T22:03:42.778Z,18.90
2022-09-09T22:06:13.609Z,26.07
2022-09-09T22:08:40.830Z,18.33
2022-09-09T22:11:14.166Z,21.57
2022-09-09T22:13:42.680Z,20.17
2022-09-09T22:16:12.511Z,20.50
2022-09-09T22:18:40.231Z,20.40
2022-09-09T22:21:16.727Z,23.20
2022-09-09T22:23:43.725Z,24.90
2022-09-09T22:26:11.198Z,21.03
2022-09-09T22:28:38.914Z,23.73
2022-09-09T22:31:12.145Z,24.70
2022-09-09T22:33:39.076Z,24.60
2022-09-09T22:36:06.092Z,25.33
2022-09-09T22:38:35.399Z,26.43
2022-09-09T22:41:03.526Z,27.50
2022-09-09T22:43:33.109Z,26.40
2022-09-09T22:46:01.409Z,26.63
2022-09-09T22:48:35.565Z,26.03
2022-09-09T22:51:11.208Z,25.40
2022-09-09T22:53:43.133Z,29.10
2022-09-09T22:56:14.950Z,28.70
2022-09-09T22:58:41.786Z,31.03
2022-09-09T23:01:15.600Z,29.73
2022-09-09T23:03:46.264Z,26.13
2022-09-09T23:06:22.977Z,29.53
2022-09-09T23:08:53.414Z,27.03
2022-09-09T23:11:21.566Z,30.80
2022-09-09T23:13:53.165Z,26.00
2022-09-09T23:16:27.420Z,24.83
2022-09-09T23:18:57.901Z,28.83
2022-09-09T23:21:28.308Z,22.33
2022-09-09T23:23:56.982Z,25.60
2022-09-09T23:26:26.366Z,26.13
2022-09-09T23:28:58.521Z,22.60
2022-09-09T23:31:28.119Z,24.80
2022-09-09T23:33:55.376Z,22.93
2022-09-09T23:36:24.909Z,22.40
2022-09-09T23:38:51.999Z,20.80
2022-09-09T23:41:21.296Z,18.67
2022-09-09T23:43:53.175Z,21.97
2022-09-09T23:46:23.091Z,21.17
2022-09-09T23:48:53.045Z,18.90
2022-09-09T23:51:24.145Z,19.57
2022-09-09T23:53:53.776Z,21.17
2022-09-09T23:56:22.482Z,20.40
2022-09-09T23:58:50.292Z,19.73
